createdAt,value
2019-02-19T00:00:30.088Z,57.30
2019-02-19T00:02:59.448Z,56.45
2019-02-19T00:05:28.804Z,59.48
2019-02-19T00:07:58.146Z,63.60
2019-02-19T00:10:27.919Z,60.88
2019-02-19T00:12:57.691Z,63.38
2019-02-19T00:15:27.505Z,59.00
2019-02-19T00:17:57.232Z,61.63
2019-02-19T00:20:26.684Z,61.53
2019-02-19T00:22:56.083Z,55.43
2019-02-19T00:25:25.476Z,58.00
2019-02-19T00:27:55.243Z,56.13
2019-02-19T00:30:24.962Z,56.02
2019-02-19T00:32:54.329Z,58.35
2019-02-19T00:35:24.720Z,56.20
2019-02-19T00:37:54.260Z,61.08
2019-02-19T00:40:23.982Z,55.60
2019-02-19T00:42:53.699Z,69.77
2019-02-19T00:45:23.024Z,57.65
2019-02-19T00:47:52.813Z,55.00
2019-02-19T00:50:22.129Z,59.67
2019-02-19T00:52:51.599Z,59.42
2019-02-19T00:55:21.342Z,55.23
2019-02-19T00:57:50.660Z,61.15
2019-02-19T01:00:20.058Z,54.90
2019-02-19T01:02:49.494Z,58.05
2019-02-19T01:05:18.954Z,57.08
2019-02-19T01:07:48.598Z,63.78
2019-02-19T01:10:17.970Z,59.10
2019-02-19T01:12:47.292Z,55.83
2019-02-19T01:15:25.062Z,54.25
2019-02-19T01:17:47.676Z,53.85
2019-02-19T01:20:16.976Z,60.98
2019-02-19T01:22:46.389Z,61.23
2019-02-19T01:25:16.101Z,62.03
2019-02-19T01:27:45.649Z,57.85
2019-02-19T01:30:14.958Z,53.83
2019-02-19T01:32:44.400Z,59.23
2019-02-19T01:35:13.868Z,56.02
2019-02-19T01:37:43.534Z,57.88
2019-02-19T01:40:12.977Z,59.60
2019-02-19T01:42:42.317Z,62.58
2019-02-19T01:45:11.638Z,52.45
2019-02-19T01:47:41.466Z,52.08
2019-02-19T01:50:11.269Z,60.73
2019-02-19T01:52:40.595Z,54.33
2019-02-19T01:55:09.958Z,65.00
2019-02-19T01:57:39.344Z,63.30
2019-02-19T02:00:10.390Z,59.80
2019-02-19T02:02:39.756Z,64.55
2019-02-19T02:05:09.535Z,61.30
2019-02-19T02:07:38.914Z,68.83
2019-02-19T02:10:08.332Z,61.45
2019-02-19T02:12:37.745Z,62.80
2019-02-19T02:15:07.766Z,62.20
2019-02-19T02:17:37.500Z,65.85
2019-02-19T02:20:07.585Z,63.87
2019-02-19T02:22:36.892Z,62.10
2019-02-19T02:25:06.337Z,65.20
2019-02-19T02:27:35.726Z,59.15
2019-02-19T02:30:07.045Z,63.73
2019-02-19T02:32:37.885Z,62.70
2019-02-19T02:35:07.195Z,70.22
2019-02-19T02:37:36.520Z,72.08
2019-02-19T02:40:07.509Z,66.87
2019-02-19T02:42:36.990Z,68.10
2019-02-19T02:45:06.625Z,60.83
2019-02-19T02:47:36.081Z,64.80
2019-02-19T02:50:05.611Z,73.02
2019-02-19T02:52:35.237Z,76.02
2019-02-19T02:55:05.259Z,73.50
2019-02-19T02:57:34.983Z,62.00
2019-02-19T03:00:05.532Z,67.22
2019-02-19T03:02:35.288Z,71.80
2019-02-19T03:05:05.465Z,66.87
2019-02-19T03:07:36.451Z,76.70
2019-02-19T03:10:06.470Z,69.07
2019-02-19T03:12:35.789Z,70.67
2019-02-19T03:15:06.760Z,72.65
2019-02-19T03:17:36.114Z,72.15
2019-02-19T03:20:06.907Z,72.08
2019-02-19T03:22:36.227Z,68.00
2019-02-19T03:25:05.777Z,65.28
2019-02-19T03:27:35.113Z,73.28
2019-02-19T03:30:07.141Z,77.00
2019-02-19T03:32:36.533Z,62.70
2019-02-19T03:35:06.115Z,69.10
2019-02-19T03:37:35.584Z,69.90
2019-02-19T03:40:07.569Z,72.05
2019-02-19T03:42:37.167Z,71.17
2019-02-19T03:45:09.190Z,62.93
2019-02-19T03:47:38.577Z,69.62
2019-02-19T03:50:08.035Z,67.22
2019-02-19T03:52:37.534Z,65.47
2019-02-19T03:55:06.935Z,67.03
2019-02-19T03:57:36.608Z,69.20
2019-02-19T04:00:07.514Z,75.65
2019-02-19T04:02:36.830Z,76.95
2019-02-19T04:05:06.156Z,72.62
2019-02-19T04:07:35.678Z,72.97
2019-02-19T04:10:07.051Z,69.85
2019-02-19T04:12:36.671Z,68.00
2019-02-19T04:15:07.274Z,80.10
2019-02-19T04:17:36.605Z,79.62
2019-02-19T04:20:08.036Z,86.05
2019-02-19T04:22:37.766Z,80.07
2019-02-19T04:25:07.180Z,73.20
2019-02-19T04:27:36.515Z,82.02
2019-02-19T04:30:07.787Z,66.15
2019-02-19T04:32:37.558Z,80.17
2019-02-19T04:35:07.280Z,72.32
2019-02-19T04:37:36.981Z,72.78
2019-02-19T04:40:07.939Z,77.92
2019-02-19T04:42:37.308Z,89.03
2019-02-19T04:45:07.141Z,90.38
2019-02-19T04:47:36.617Z,81.20
2019-02-19T04:50:07.420Z,86.10
2019-02-19T04:52:37.096Z,79.12
2019-02-19T04:55:06.980Z,75.83
2019-02-19T04:57:36.343Z,78.62
2019-02-19T05:00:13.793Z,77.80
2019-02-19T05:02:43.270Z,75.57
2019-02-19T05:05:13.128Z,71.25
2019-02-19T05:07:42.454Z,75.92
2019-02-19T05:10:11.880Z,69.32
2019-02-19T05:12:41.520Z,76.22
2019-02-19T05:15:11.536Z,72.78
2019-02-19T05:17:41.017Z,77.30
2019-02-19T05:20:11.398Z,80.67
2019-02-19T05:22:41.199Z,83.40
2019-02-19T05:25:10.954Z,69.85
2019-02-19T05:27:40.274Z,78.07
2019-02-19T05:30:11.217Z,78.45
2019-02-19T05:32:40.611Z,76.77
2019-02-19T05:35:09.934Z,76.40
2019-02-19T05:37:39.666Z,81.55
2019-02-19T05:40:09.986Z,78.30
2019-02-19T05:42:39.299Z,83.70
2019-02-19T05:45:10.361Z,82.60
2019-02-19T05:47:40.847Z,82.42
2019-02-19T05:50:11.024Z,80.60
2019-02-19T05:52:40.303Z,79.40
2019-02-19T05:55:09.683Z,88.52
2019-02-19T05:57:39.008Z,87.50
2019-02-19T06:00:12.767Z,82.57
2019-02-19T06:02:42.160Z,86.02
2019-02-19T06:05:11.644Z,80.00
2019-02-19T06:07:40.963Z,81.97
2019-02-19T06:10:12.252Z,85.35
2019-02-19T06:12:41.594Z,93.52
2019-02-19T06:15:12.253Z,89.47
2019-02-19T06:17:41.675Z,75.05
2019-02-19T06:20:11.082Z,88.42
2019-02-19T06:22:40.495Z,103.72
2019-02-19T06:25:10.067Z,106.10
2019-02-19T06:27:39.365Z,103.35
2019-02-19T06:30:11.558Z,108.47
2019-02-19T06:32:41.255Z,102.38
2019-02-19T06:35:10.966Z,109.00
2019-02-19T06:37:41.485Z,112.80
2019-02-19T06:40:23.029Z,109.83
2019-02-19T06:42:52.456Z,98.40
2019-02-19T06:45:21.832Z,106.60
2019-02-19T06:47:51.500Z,112.57
2019-02-19T06:50:21.208Z,100.58
2019-02-19T06:52:50.926Z,105.72
2019-02-19T06:55:20.255Z,97.85
2019-02-19T06:57:50.178Z,105.10
2019-02-19T07:00:19.496Z,102.87
2019-02-19T07:02:53.619Z,108.10
2019-02-19T07:05:24.707Z,113.00
2019-02-19T07:07:54.149Z,106.65
2019-02-19T07:10:23.498Z,107.00
2019-02-19T07:12:53.208Z,106.12
2019-02-19T07:15:22.652Z,95.47
2019-02-19T07:17:52.132Z,102.75
2019-02-19T07:20:21.523Z,108.92
2019-02-19T07:22:51.548Z,110.22
2019-02-19T07:25:20.871Z,111.37
2019-02-19T07:27:50.187Z,121.25
2019-02-19T07:30:19.607Z,119.22
2019-02-19T07:32:48.922Z,123.60
2019-02-19T07:35:18.272Z,111.03
2019-02-19T07:37:47.898Z,116.20
2019-02-19T07:40:17.539Z,106.97
2019-02-19T07:42:47.381Z,108.25
2019-02-19T07:45:17.093Z,101.27
2019-02-19T07:47:46.507Z,101.75
2019-02-19T07:50:16.206Z,105.67
2019-02-19T07:52:45.517Z,101.58
2019-02-19T07:55:15.262Z,104.78
2019-02-19T07:57:45.169Z,102.38
2019-02-19T08:00:14.555Z,95.67
2019-02-19T08:02:43.906Z,96.92
2019-02-19T08:05:13.360Z,98.67
2019-02-19T08:07:42.799Z,104.00
2019-02-19T08:10:12.540Z,99.20
2019-02-19T08:12:41.896Z,99.10
2019-02-19T08:15:11.782Z,95.65
2019-02-19T08:17:41.247Z,99.87
2019-02-19T08:20:15.999Z,90.07
2019-02-19T08:22:42.116Z,92.72
2019-02-19T08:25:11.462Z,91.75
2019-02-19T08:27:40.878Z,92.67
2019-02-19T08:30:11.182Z,88.45
2019-02-19T08:32:40.939Z,86.67
2019-02-19T08:35:10.672Z,95.55
2019-02-19T08:37:40.381Z,87.92
2019-02-19T08:40:09.973Z,90.42
2019-02-19T08:42:39.690Z,93.17
2019-02-19T08:45:09.844Z,95.65
2019-02-19T08:47:42.556Z,95.03
2019-02-19T08:50:10.215Z,98.12
2019-02-19T08:52:39.861Z,95.15
2019-02-19T08:55:09.196Z,83.70
2019-02-19T08:57:38.897Z,88.87
2019-02-19T09:00:11.138Z,83.17
2019-02-19T09:02:40.445Z,88.92
2019-02-19T09:05:10.367Z,91.15
2019-02-19T09:07:39.789Z,80.95
2019-02-19T09:10:13.164Z,88.60
2019-02-19T09:15:12.128Z,81.10
2019-02-19T09:17:41.445Z,85.30
2019-02-19T09:20:11.734Z,87.15
2019-02-19T09:22:41.155Z,88.67
2019-02-19T09:25:10.468Z,94.22
2019-02-19T09:27:39.845Z,99.40
2019-02-19T09:30:12.567Z,96.28
2019-02-19T09:32:41.962Z,95.65
2019-02-19T09:35:11.791Z,93.80
2019-02-19T09:37:41.139Z,97.57
2019-02-19T09:40:11.154Z,97.97
2019-02-19T09:42:40.467Z,97.15
2019-02-19T09:45:10.453Z,94.72
2019-02-19T09:47:39.845Z,94.50
2019-02-19T09:50:11.608Z,97.53
2019-02-19T09:52:41.084Z,108.85
2019-02-19T09:55:10.804Z,104.30
2019-02-19T09:57:40.173Z,94.52
2019-02-19T10:00:12.213Z,98.30
2019-02-19T10:02:41.555Z,107.12
2019-02-19T10:05:12.203Z,93.87
2019-02-19T10:07:42.554Z,93.92
2019-02-19T10:10:17.465Z,91.67
2019-02-19T10:12:46.897Z,83.58
2019-02-19T10:15:16.290Z,88.75
2019-02-19T10:17:46.080Z,98.00
2019-02-19T10:20:15.778Z,86.40
2019-02-19T10:22:45.176Z,83.80
2019-02-19T10:25:14.888Z,96.67
2019-02-19T10:27:44.201Z,95.85
2019-02-19T10:30:21.208Z,91.92
2019-02-19T10:32:50.929Z,99.10
2019-02-19T10:35:20.714Z,96.47
2019-02-19T10:37:51.688Z,94.50
2019-02-19T10:40:21.554Z,96.08
2019-02-19T10:42:50.948Z,96.72
2019-02-19T10:45:26.966Z,98.92
2019-02-19T10:47:56.291Z,105.17
2019-02-19T10:50:25.643Z,99.70
2019-02-19T10:52:54.953Z,105.87
2019-02-19T10:55:24.286Z,102.82
2019-02-19T10:57:53.742Z,94.28
2019-02-19T11:00:23.613Z,106.12
2019-02-19T11:02:53.365Z,104.25
2019-02-19T11:05:22.778Z,108.32
2019-02-19T11:07:52.184Z,104.65
2019-02-19T11:10:21.514Z,106.67
2019-02-19T11:12:50.870Z,105.65
2019-02-19T11:15:20.191Z,117.62
2019-02-19T11:17:51.195Z,116.20
2019-02-19T11:20:23.885Z,113.68
2019-02-19T11:22:53.243Z,110.73
2019-02-19T11:25:22.567Z,107.90
2019-02-19T11:27:52.024Z,111.75
2019-02-19T11:30:21.415Z,110.32
2019-02-19T11:32:50.803Z,117.15
2019-02-19T11:35:20.414Z,117.05
2019-02-19T11:37:49.830Z,108.47
2019-02-19T11:40:19.159Z,106.27
2019-02-19T11:42:48.477Z,109.10
2019-02-19T11:45:19.066Z,106.60
2019-02-19T11:47:48.444Z,104.23
2019-02-19T11:50:17.837Z,100.00
2019-02-19T11:52:47.291Z,98.52
2019-02-19T11:55:20.004Z,96.82
2019-02-19T11:57:49.406Z,95.57
2019-02-19T12:00:20.704Z,93.10
2019-02-19T12:02:50.087Z,95.03
2019-02-19T12:05:19.474Z,88.80
2019-02-19T12:07:48.839Z,92.35
2019-02-19T12:10:18.157Z,86.95
2019-02-19T12:12:47.538Z,91.85
2019-02-19T12:15:16.952Z,91.45
2019-02-19T12:17:46.334Z,88.75
2019-02-19T12:20:16.753Z,88.85
2019-02-19T12:22:46.125Z,81.85
2019-02-19T12:25:15.627Z,85.87
2019-02-19T12:27:45.416Z,85.10
2019-02-19T12:30:16.520Z,86.87
2019-02-19T12:32:45.918Z,91.08
2019-02-19T12:35:15.309Z,80.22
2019-02-19T12:37:44.716Z,74.05
2019-02-19T12:40:14.484Z,74.27
2019-02-19T12:42:44.192Z,65.00
2019-02-19T12:45:14.922Z,63.92
2019-02-19T12:47:44.757Z,66.20
2019-02-19T12:50:16.299Z,74.85
2019-02-19T12:52:46.012Z,67.67
2019-02-19T12:55:15.414Z,70.65
2019-02-19T12:57:45.133Z,64.10
2019-02-19T13:00:16.626Z,63.85
2019-02-19T13:02:46.097Z,62.35
2019-02-19T13:05:16.521Z,70.22
2019-02-19T13:07:47.050Z,59.58
2019-02-19T13:10:16.788Z,51.90
2019-02-19T13:12:46.182Z,55.08
2019-02-19T13:15:20.511Z,53.23
2019-02-19T13:17:49.842Z,34.48
2019-02-19T13:20:19.590Z,37.30
2019-02-19T13:22:48.964Z,75.80
2019-02-19T13:25:19.424Z,72.15
2019-02-19T13:27:48.916Z,73.00
2019-02-19T13:30:20.630Z,65.87
2019-02-19T13:32:49.964Z,67.50
2019-02-19T13:35:19.382Z,87.22
2019-02-19T13:37:49.087Z,81.25
2019-02-19T13:40:21.780Z,81.82
2019-02-19T13:42:51.111Z,89.30
2019-02-19T13:45:20.444Z,74.45
2019-02-19T13:47:49.897Z,80.60
2019-02-19T13:50:25.213Z,76.77
2019-02-19T13:52:56.239Z,77.40
2019-02-19T13:55:27.716Z,72.12
2019-02-19T13:57:57.598Z,74.58
2019-02-19T14:00:29.774Z,77.58
2019-02-19T14:02:59.545Z,57.17
2019-02-19T14:05:29.079Z,45.05
2019-02-19T14:07:58.713Z,28.62
2019-02-19T14:10:28.082Z,23.62
2019-02-19T14:12:57.396Z,27.55
2019-02-19T14:15:34.441Z,26.10
2019-02-19T14:18:05.325Z,25.80
2019-02-19T14:20:53.178Z,26.60
2019-02-19T14:23:30.462Z,24.40
2019-02-19T14:26:14.104Z,26.97
2019-02-19T14:29:01.724Z,25.50
2019-02-19T14:31:44.614Z,30.12
2019-02-19T14:34:15.580Z,33.90
2019-02-19T14:37:03.050Z,27.65
2019-02-19T14:39:37.342Z,30.60
2019-02-19T14:42:20.451Z,23.62
2019-02-19T14:44:51.501Z,27.00
2019-02-19T14:47:31.579Z,29.32
2019-02-19T14:50:11.736Z,22.17
2019-02-19T14:52:51.919Z,24.70
2019-02-19T14:55:39.483Z,25.55
2019-02-19T14:58:13.024Z,28.70
2019-02-19T15:03:32.238Z,24.98
2019-02-19T15:06:12.194Z,24.40
2019-02-19T15:08:49.691Z,26.23
2019-02-19T15:11:29.789Z,25.17
2019-02-19T15:14:13.214Z,32.83
2019-02-19T15:16:44.186Z,27.30
2019-02-19T15:19:19.763Z,27.40
2019-02-19T15:22:04.400Z,24.30
2019-02-19T15:24:54.011Z,27.10
2019-02-19T15:27:34.066Z,26.73
2019-02-19T15:30:05.105Z,27.93
2019-02-19T15:32:52.715Z,23.77
2019-02-19T15:35:26.735Z,28.15
2019-02-19T15:38:14.093Z,26.17
2019-02-19T15:40:50.950Z,25.43
2019-02-19T15:43:36.988Z,29.18
2019-02-19T15:46:07.969Z,22.98
2019-02-19T15:48:41.524Z,28.95
2019-02-19T15:54:00.977Z,25.60
2019-02-19T15:56:48.448Z,29.60
2019-02-19T15:59:22.214Z,28.57
2019-02-19T16:01:53.551Z,27.77
2019-02-19T16:04:24.613Z,31.17
2019-02-19T16:07:01.422Z,29.60
2019-02-19T16:09:32.365Z,26.10
2019-02-19T16:12:06.849Z,28.65
2019-02-19T16:14:54.640Z,30.37
2019-02-19T16:17:25.936Z,29.27
2019-02-19T16:20:09.193Z,32.55
2019-02-19T16:22:49.621Z,29.35
2019-02-19T16:25:26.584Z,39.55
2019-02-19T16:28:14.224Z,31.33
2019-02-19T16:30:51.416Z,34.20
2019-02-19T16:33:38.792Z,39.65
2019-02-19T16:36:25.142Z,31.68
2019-02-19T16:38:59.265Z,43.50
2019-02-19T16:41:36.154Z,35.75
2019-02-19T16:44:13.513Z,37.25
2019-02-19T16:46:44.481Z,36.30
2019-02-19T16:49:15.801Z,89.77
2019-02-19T16:51:52.624Z,118.05
2019-02-19T16:54:26.595Z,156.63
2019-02-19T16:56:57.653Z,175.15
2019-02-19T16:59:40.428Z,179.18
2019-02-19T17:02:11.628Z,193.97
2019-02-19T17:04:59.335Z,196.35
2019-02-19T17:07:36.211Z,194.97
2019-02-19T17:10:10.441Z,199.23
2019-02-19T17:13:00.202Z,211.75
2019-02-19T17:15:40.121Z,197.82
2019-02-19T17:18:14.703Z,209.43
2019-02-19T17:21:04.346Z,209.27
2019-02-19T17:23:47.575Z,210.57
2019-02-19T17:26:34.573Z,201.88
2019-02-19T17:29:08.335Z,207.12
2019-02-19T17:31:54.291Z,213.95
2019-02-19T17:34:25.426Z,197.05
2019-02-19T17:36:59.638Z,205.12
2019-02-19T17:39:33.612Z,207.77
2019-02-19T17:42:14.121Z,203.05
2019-02-19T17:48:03.607Z,203.77
2019-02-19T17:50:38.724Z,201.07
2019-02-19T17:53:18.793Z,195.43
2019-02-19T17:55:49.821Z,184.05
2019-02-19T17:58:29.911Z,175.60
2019-02-19T18:01:00.869Z,171.72
2019-02-19T18:03:47.190Z,165.37
2019-02-19T18:06:34.232Z,169.95
2019-02-19T18:09:17.680Z,177.22
2019-02-19T18:11:51.539Z,153.00
2019-02-19T18:14:22.678Z,163.40
2019-02-19T18:17:13.238Z,159.22
2019-02-19T18:19:43.723Z,152.07
2019-02-19T18:22:13.216Z,156.93
2019-02-19T18:24:43.075Z,158.27
2019-02-19T18:27:12.573Z,165.07
2019-02-19T18:29:41.900Z,166.73
2019-02-19T18:32:11.691Z,169.07
2019-02-19T18:34:41.048Z,162.72
2019-02-19T18:37:10.380Z,172.87
2019-02-19T18:39:40.250Z,180.82
2019-02-19T18:42:09.639Z,180.40
2019-02-19T18:44:40.481Z,182.93
2019-02-19T18:47:09.818Z,183.68
2019-02-19T18:49:39.286Z,177.00
2019-02-19T18:52:09.195Z,172.80
2019-02-19T18:54:38.893Z,162.22
2019-02-19T18:57:08.831Z,168.50
2019-02-19T18:59:38.645Z,169.02
2019-02-19T19:02:07.979Z,162.18
2019-02-19T19:04:37.460Z,167.65
2019-02-19T19:07:06.961Z,169.90
2019-02-19T19:09:36.363Z,176.72
2019-02-19T19:12:05.686Z,170.92
2019-02-19T19:14:35.419Z,166.32
2019-02-19T19:17:04.884Z,163.22
2019-02-19T19:19:34.424Z,166.05
2019-02-19T19:22:03.903Z,158.63
2019-02-19T19:24:33.692Z,162.20
2019-02-19T19:27:03.104Z,167.93
2019-02-19T19:29:32.430Z,167.55
2019-02-19T19:32:02.209Z,161.88
2019-02-19T19:34:31.597Z,173.80
2019-02-19T19:37:00.993Z,170.38
2019-02-19T19:39:30.834Z,159.40
2019-02-19T19:42:00.169Z,174.18
2019-02-19T19:44:29.668Z,159.90
2019-02-19T19:47:00.702Z,160.50
2019-02-19T19:49:30.234Z,162.70
2019-02-19T19:51:59.620Z,164.50
2019-02-19T19:54:28.957Z,163.35
2019-02-19T19:56:58.359Z,159.60
2019-02-19T19:59:27.769Z,158.57
2019-02-19T20:01:57.463Z,159.43
2019-02-19T20:04:27.133Z,171.93
2019-02-19T20:06:56.515Z,159.67
2019-02-19T20:09:26.323Z,162.62
2019-02-19T20:11:55.729Z,170.65
2019-02-19T20:14:25.206Z,176.93
2019-02-19T20:16:54.579Z,170.57
2019-02-19T20:19:24.147Z,179.35
2019-02-19T20:21:53.971Z,166.50
2019-02-19T20:24:23.573Z,180.45
2019-02-19T20:26:52.960Z,167.87
2019-02-19T20:29:22.491Z,172.02
2019-02-19T20:31:52.052Z,161.30
2019-02-19T20:34:21.477Z,166.05
2019-02-19T20:36:50.985Z,173.25
2019-02-19T20:39:20.495Z,156.78
2019-02-19T20:41:50.022Z,171.18
2019-02-19T20:44:19.923Z,172.17
2019-02-19T20:46:49.633Z,166.60
2019-02-19T20:49:19.444Z,169.75
2019-02-19T20:51:49.096Z,163.05
2019-02-19T20:54:18.635Z,165.55
2019-02-19T20:56:48.694Z,166.65
2019-02-19T20:59:18.135Z,164.77
2019-02-19T21:01:47.673Z,176.27
2019-02-19T21:04:17.330Z,175.78
2019-02-19T21:06:46.908Z,193.62
2019-02-19T21:09:16.542Z,173.00
2019-02-19T21:11:45.974Z,182.70
2019-02-19T21:14:15.954Z,179.25
2019-02-19T21:16:46.537Z,176.07
2019-02-19T21:19:16.229Z,177.72
2019-02-19T21:21:45.803Z,183.80
2019-02-19T21:24:15.351Z,185.10
2019-02-19T21:26:44.849Z,182.93
2019-02-19T21:29:14.314Z,191.60
2019-02-19T21:31:43.807Z,188.32
2019-02-19T21:34:13.623Z,179.23
2019-02-19T21:36:43.416Z,178.87
2019-02-19T21:39:12.829Z,171.22
2019-02-19T21:41:42.427Z,186.82
2019-02-19T21:44:12.009Z,181.30
2019-02-19T21:46:41.486Z,168.82
2019-02-19T21:49:10.886Z,164.03
2019-02-19T21:51:41.372Z,163.52
2019-02-19T21:54:11.052Z,167.43
2019-02-19T21:56:41.807Z,160.57
2019-02-19T21:59:11.656Z,162.53
2019-02-19T22:01:41.407Z,172.50
2019-02-19T22:04:11.436Z,184.13
2019-02-19T22:06:41.154Z,176.42
2019-02-19T22:09:10.800Z,165.97
2019-02-19T22:11:42.192Z,153.87
2019-02-19T22:14:12.001Z,155.90
2019-02-19T22:16:42.032Z,159.00
2019-02-19T22:19:12.050Z,166.40
2019-02-19T22:21:49.443Z,158.32
2019-02-19T22:24:20.676Z,154.78
2019-02-19T22:26:50.436Z,157.52
2019-02-19T22:29:20.171Z,153.82
2019-02-19T22:31:50.237Z,173.22
2019-02-19T22:34:19.896Z,170.85
2019-02-19T22:36:49.466Z,165.50
2019-02-19T22:39:19.465Z,181.40
2019-02-19T22:41:49.048Z,168.57
2019-02-19T22:44:18.689Z,178.02
2019-02-19T22:46:48.274Z,172.65
2019-02-19T22:49:18.237Z,170.90
2019-02-19T22:51:47.816Z,159.30
2019-02-19T22:54:20.044Z,168.25
2019-02-19T22:56:49.989Z,160.05
2019-02-19T22:59:19.630Z,145.38
2019-02-19T23:01:51.136Z,153.95
2019-02-19T23:04:20.716Z,161.10
2019-02-19T23:06:50.328Z,154.55
2019-02-19T23:09:20.044Z,152.12
2019-02-19T23:11:49.700Z,156.63
2019-02-19T23:14:19.814Z,154.32
2019-02-19T23:16:49.449Z,147.55
2019-02-19T23:19:19.184Z,155.43
2019-02-19T23:21:49.140Z,148.68
2019-02-19T23:24:19.259Z,148.15
2019-02-19T23:26:49.275Z,151.95
2019-02-19T23:29:18.938Z,145.90
2019-02-19T23:31:48.676Z,137.15
2019-02-19T23:34:18.183Z,155.37
2019-02-19T23:36:49.483Z,153.87
2019-02-19T23:39:19.142Z,152.17
2019-02-19T23:41:48.896Z,151.75
2019-02-19T23:44:18.716Z,149.77
2019-02-19T23:46:48.600Z,149.15
2019-02-19T23:49:18.518Z,152.25
2019-02-19T23:51:48.658Z,143.28
2019-02-19T23:54:18.341Z,145.87
2019-02-19T23:56:47.911Z,145.77
2019-02-19T23:59:17.526Z,144.22
